createdAt,value
2023-03-22T00:01:19.583Z,65.75
2023-03-22T00:03:48.346Z,65.58
2023-03-22T00:06:17.345Z,65.72
2023-03-22T00:08:45.890Z,65.43
2023-03-22T00:11:14.101Z,65.54
2023-03-22T00:13:43.038Z,65.71
2023-03-22T00:16:11.824Z,65.49
2023-03-22T00:18:41.615Z,65.66
2023-03-22T00:21:12.359Z,65.39
2023-03-22T00:23:40.859Z,65.70
2023-03-22T00:26:09.323Z,65.73
2023-03-22T00:28:37.306Z,65.55
2023-03-22T00:31:06.384Z,65.59
2023-03-22T00:33:34.616Z,65.45
2023-03-22T00:36:05.781Z,65.48
2023-03-22T00:38:42.496Z,65.66
2023-03-22T00:41:13.343Z,65.71
2023-03-22T00:43:41.329Z,65.62
2023-03-22T00:46:09.595Z,65.60
2023-03-22T00:48:37.397Z,65.29
2023-03-22T00:51:07.084Z,65.64
2023-03-22T00:53:36.412Z,65.55
2023-03-22T00:56:04.990Z,65.29
2023-03-22T00:58:32.940Z,65.55
2023-03-22T01:01:00.791Z,65.61
2023-03-22T01:03:28.629Z,65.52
2023-03-22T01:05:56.499Z,65.74
2023-03-22T01:08:25.833Z,65.53
2023-03-22T01:10:53.633Z,65.44
2023-03-22T01:13:21.369Z,65.58
2023-03-22T01:15:51.639Z,65.51
2023-03-22T01:18:19.851Z,65.42
2023-03-22T01:20:47.592Z,65.64
2023-03-22T01:23:15.360Z,65.81
2023-03-22T01:25:44.470Z,65.48
2023-03-22T01:28:12.186Z,65.56
2023-03-22T01:30:40.698Z,65.50
2023-03-22T01:33:09.125Z,65.77
2023-03-22T01:35:37.847Z,65.61
2023-03-22T01:38:05.656Z,65.61
2023-03-22T01:40:33.917Z,65.70
2023-03-22T01:43:03.221Z,65.97
2023-03-22T01:45:40.341Z,65.89
2023-03-22T01:48:15.635Z,65.78
2023-03-22T01:50:46.928Z,65.86
2023-03-22T01:53:19.141Z,65.85
2023-03-22T01:55:48.168Z,65.74
2023-03-22T01:58:18.256Z,65.72
2023-03-22T02:00:46.960Z,65.83
2023-03-22T02:03:19.403Z,65.94
2023-03-22T02:05:48.392Z,65.73
2023-03-22T02:08:16.215Z,65.86
2023-03-22T02:10:44.084Z,65.78
2023-03-22T02:13:30.684Z,66.19
2023-03-22T02:16:08.854Z,66.26
2023-03-22T02:18:55.149Z,65.92
2023-03-22T02:21:49.825Z,65.88
2023-03-22T02:24:46.256Z,65.99
2023-03-22T02:27:36.853Z,66.01
2023-03-22T02:30:26.417Z,66.02
2023-03-22T02:33:21.718Z,66.07
2023-03-22T02:36:10.018Z,65.96
2023-03-22T02:39:15.478Z,65.87
2023-03-22T02:41:59.799Z,66.23
2023-03-22T02:44:34.637Z,66.08
2023-03-22T02:47:06.720Z,65.97
2023-03-22T02:49:38.533Z,66.19
2023-03-22T02:52:17.367Z,66.35
2023-03-22T02:54:52.658Z,66.26
2023-03-22T02:57:27.197Z,66.06
2023-03-22T02:59:57.390Z,66.70
2023-03-22T03:02:29.174Z,66.21
2023-03-22T03:04:58.434Z,66.16
2023-03-22T03:07:28.430Z,66.13
2023-03-22T03:09:57.652Z,65.83
2023-03-22T03:12:26.954Z,66.28
2023-03-22T03:14:55.285Z,66.05
2023-03-22T03:17:37.297Z,66.07
2023-03-22T03:20:24.219Z,65.98
2023-03-22T03:23:07.305Z,65.95
2023-03-22T03:25:43.653Z,66.03
2023-03-22T03:28:22.947Z,66.36
2023-03-22T03:30:57.229Z,66.17
2023-03-22T03:33:29.157Z,66.15
2023-03-22T03:36:02.085Z,66.29
2023-03-22T03:38:33.396Z,65.90
2023-03-22T03:41:05.360Z,66.36
2023-03-22T03:43:35.338Z,66.18
2023-03-22T03:46:03.496Z,66.26
2023-03-22T03:48:33.859Z,66.09
2023-03-22T03:51:03.221Z,66.35
2023-03-22T03:53:31.501Z,66.04
2023-03-22T03:55:59.532Z,66.21
2023-03-22T03:58:30.456Z,66.13
2023-03-22T04:00:58.348Z,66.43
2023-03-22T04:03:26.316Z,66.23
2023-03-22T04:05:54.315Z,66.25
2023-03-22T04:08:22.014Z,66.22
2023-03-22T04:10:50.701Z,66.11
2023-03-22T04:13:19.150Z,66.14
2023-03-22T04:15:48.305Z,66.01
2023-03-22T04:18:16.062Z,66.02
2023-03-22T04:20:46.940Z,66.19
2023-03-22T04:23:14.681Z,66.30
2023-03-22T04:25:43.552Z,66.04
2023-03-22T04:28:13.635Z,65.95
2023-03-22T04:30:41.681Z,66.19
2023-03-22T04:33:12.204Z,66.27
2023-03-22T04:35:39.984Z,66.10
2023-03-22T04:38:07.889Z,66.11
2023-03-22T04:40:38.811Z,66.04
2023-03-22T04:43:06.814Z,65.92
2023-03-22T04:45:35.087Z,66.10
2023-03-22T04:48:02.927Z,66.09
2023-03-22T04:50:32.024Z,66.28
2023-03-22T04:52:59.775Z,66.04
2023-03-22T04:55:27.678Z,66.15
2023-03-22T04:57:55.986Z,66.15
2023-03-22T05:00:24.016Z,66.13
2023-03-22T05:02:51.844Z,65.97
2023-03-22T05:05:19.625Z,65.94
2023-03-22T05:07:48.725Z,66.11
2023-03-22T05:10:16.805Z,65.92
2023-03-22T05:12:44.663Z,66.20
2023-03-22T05:15:12.693Z,66.02
2023-03-22T05:17:40.424Z,65.90
2023-03-22T05:20:10.231Z,65.86
2023-03-22T05:22:40.715Z,66.04
2023-03-22T05:25:11.629Z,66.04
2023-03-22T05:27:39.425Z,66.00
2023-03-22T05:30:09.748Z,66.05
2023-03-22T05:32:37.643Z,65.91
2023-03-22T05:35:06.952Z,66.01
2023-03-22T05:37:34.751Z,66.06
2023-03-22T05:40:02.580Z,65.96
2023-03-22T05:42:32.290Z,65.83
2023-03-22T05:45:00.031Z,66.40
2023-03-22T05:47:27.760Z,65.93
2023-03-22T05:49:55.507Z,66.07
2023-03-22T05:52:23.197Z,65.80
2023-03-22T05:54:51.282Z,66.03
2023-03-22T05:57:19.041Z,65.66
2023-03-22T05:59:48.145Z,65.83
2023-03-22T06:02:15.983Z,65.83
2023-03-22T06:04:43.787Z,65.57
2023-03-22T06:07:11.626Z,65.57
2023-03-22T06:09:39.622Z,65.95
2023-03-22T06:12:07.677Z,66.02
2023-03-22T06:14:35.743Z,65.79
2023-03-22T06:17:04.880Z,65.87
2023-03-22T06:19:32.627Z,65.75
2023-03-22T06:22:00.382Z,65.72
2023-03-22T06:24:28.144Z,65.87
2023-03-22T06:26:55.932Z,65.81
2023-03-22T06:29:23.704Z,65.99
2023-03-22T06:31:51.427Z,65.95
2023-03-22T06:34:20.593Z,65.85
2023-03-22T06:36:48.353Z,65.75
2023-03-22T06:39:16.082Z,66.42
2023-03-22T06:41:43.855Z,66.20
2023-03-22T06:44:11.568Z,66.08
2023-03-22T06:46:39.419Z,66.79
2023-03-22T06:49:07.954Z,66.07
2023-03-22T06:51:37.445Z,66.29
2023-03-22T06:54:05.601Z,66.25
2023-03-22T06:56:33.353Z,66.23
2023-03-22T06:59:01.143Z,66.33
2023-03-22T07:01:28.897Z,66.51
2023-03-22T07:03:56.648Z,66.84
2023-03-22T07:06:24.457Z,68.11
2023-03-22T07:08:53.631Z,66.22
2023-03-22T07:11:21.463Z,67.67
2023-03-22T07:13:49.215Z,66.18
2023-03-22T07:16:19.450Z,66.79
2023-03-22T07:18:48.258Z,66.36
2023-03-22T07:21:16.327Z,66.07
2023-03-22T07:23:44.211Z,66.57
2023-03-22T07:26:13.845Z,66.21
2023-03-22T07:28:44.559Z,66.57
2023-03-22T07:31:13.766Z,66.63
2023-03-22T07:33:42.116Z,66.65
2023-03-22T07:36:11.347Z,66.23
2023-03-22T07:38:39.196Z,65.93
2023-03-22T07:41:07.573Z,66.22
2023-03-22T07:43:50.706Z,66.06
2023-03-22T07:46:21.048Z,66.31
2023-03-22T07:48:49.100Z,66.85
2023-03-22T07:51:16.992Z,65.99
2023-03-22T07:53:44.771Z,65.84
2023-03-22T07:56:12.536Z,66.03
2023-03-22T07:58:41.791Z,66.06
2023-03-22T08:01:10.829Z,66.28
2023-03-22T08:03:39.080Z,66.00
2023-03-22T08:06:08.546Z,66.40
2023-03-22T08:08:37.843Z,66.24
2023-03-22T08:11:05.960Z,66.38
2023-03-22T08:13:34.152Z,66.30
2023-03-22T08:16:03.506Z,66.17
2023-03-22T08:18:31.509Z,66.13
2023-03-22T08:21:00.791Z,66.30
2023-03-22T08:23:41.018Z,66.11
2023-03-22T08:26:09.991Z,66.12
2023-03-22T08:28:37.982Z,66.42
2023-03-22T08:31:15.128Z,66.02
2023-03-22T08:33:44.010Z,65.97
2023-03-22T08:36:15.246Z,66.88
2023-03-22T08:38:45.173Z,65.79
2023-03-22T08:41:13.268Z,66.17
2023-03-22T08:43:41.124Z,65.89
2023-03-22T08:46:09.416Z,66.05
2023-03-22T08:48:41.641Z,66.20
2023-03-22T08:51:09.886Z,65.83
2023-03-22T08:53:37.846Z,65.88
2023-03-22T08:56:07.820Z,65.62
2023-03-22T08:58:36.256Z,65.84
2023-03-22T09:01:04.110Z,65.39
2023-03-22T09:03:31.983Z,64.79
2023-03-22T09:06:01.123Z,64.44
2023-03-22T09:08:29.157Z,64.54
2023-03-22T09:10:56.956Z,64.06
2023-03-22T09:13:24.702Z,63.74
2023-03-22T09:15:53.205Z,63.96
2023-03-22T09:18:21.036Z,63.01
2023-03-22T09:20:49.201Z,62.51
2023-03-22T09:23:18.415Z,62.14
2023-03-22T09:25:46.853Z,61.95
2023-03-22T09:28:14.956Z,61.10
2023-03-22T09:30:43.205Z,61.02
2023-03-22T09:33:11.230Z,60.68
2023-03-22T09:35:42.780Z,60.06
2023-03-22T09:38:12.216Z,59.51
2023-03-22T09:41:00.581Z,58.96
2023-03-22T09:43:33.037Z,58.87
2023-03-22T09:46:02.023Z,58.68
2023-03-22T09:48:34.188Z,59.19
2023-03-22T09:51:03.393Z,60.09
2023-03-22T09:53:33.370Z,61.52
2023-03-22T09:56:08.197Z,61.44
2023-03-22T09:58:45.828Z,62.19
2023-03-22T10:01:23.331Z,62.33
2023-03-22T10:04:07.162Z,62.67
2023-03-22T10:06:35.030Z,63.08
2023-03-22T10:09:10.566Z,63.55
2023-03-22T10:11:46.404Z,63.52
2023-03-22T10:14:30.791Z,63.73
2023-03-22T10:17:03.702Z,63.75
2023-03-22T10:19:36.712Z,64.04
2023-03-22T10:22:07.073Z,64.12
2023-03-22T10:24:39.603Z,64.46
2023-03-22T10:27:16.569Z,63.92
2023-03-22T10:29:50.422Z,64.43
2023-03-22T10:32:19.923Z,64.27
2023-03-22T10:34:49.399Z,63.59
2023-03-22T10:37:21.290Z,63.94
2023-03-22T10:39:52.242Z,63.46
2023-03-22T10:42:25.030Z,63.99
2023-03-22T10:44:57.077Z,64.49
2023-03-22T10:47:33.180Z,64.66
2023-03-22T10:50:03.924Z,64.97
2023-03-22T10:52:39.544Z,65.12
2023-03-22T10:55:12.517Z,65.39
2023-03-22T10:57:43.956Z,65.58
2023-03-22T11:00:17.530Z,65.62
2023-03-22T11:02:52.053Z,64.71
2023-03-22T11:05:23.846Z,64.54
2023-03-22T11:07:52.181Z,63.86
2023-03-22T11:10:23.228Z,63.77
2023-03-22T11:12:54.987Z,62.75
2023-03-22T11:15:27.672Z,62.13
2023-03-22T11:18:01.230Z,61.79
2023-03-22T11:20:31.050Z,61.28
2023-03-22T11:23:02.616Z,61.66
2023-03-22T11:25:32.459Z,61.95
2023-03-22T11:28:16.339Z,62.71
2023-03-22T11:30:59.575Z,63.43
2023-03-22T11:33:27.580Z,63.49
2023-03-22T11:35:57.621Z,64.19
2023-03-22T11:38:29.509Z,64.36
2023-03-22T11:41:01.214Z,64.28
2023-03-22T11:43:35.352Z,65.00
2023-03-22T11:46:04.044Z,64.84
2023-03-22T11:48:33.826Z,65.02
2023-03-22T11:51:09.004Z,65.50
2023-03-22T11:53:40.454Z,65.33
2023-03-22T11:56:11.593Z,66.00
2023-03-22T11:58:56.335Z,65.74
2023-03-22T12:01:34.474Z,66.03
2023-03-22T12:04:05.394Z,65.93
2023-03-22T12:06:37.758Z,65.59
2023-03-22T12:09:10.137Z,65.97
2023-03-22T12:11:41.106Z,65.92
2023-03-22T12:14:17.854Z,66.20
2023-03-22T12:16:48.109Z,66.04
2023-03-22T12:19:28.206Z,66.11
2023-03-22T12:21:56.460Z,66.09
2023-03-22T12:24:29.021Z,66.30
2023-03-22T12:27:01.213Z,66.32
2023-03-22T12:29:31.518Z,66.19
2023-03-22T12:32:03.442Z,65.94
2023-03-22T12:34:39.954Z,65.93
2023-03-22T12:37:12.917Z,66.04
2023-03-22T12:39:46.178Z,66.18
2023-03-22T12:42:21.991Z,66.04
2023-03-22T12:45:04.616Z,66.25
2023-03-22T12:47:41.566Z,66.34
2023-03-22T12:50:15.351Z,66.37
2023-03-22T12:52:46.999Z,66.04
2023-03-22T12:55:23.528Z,66.29
2023-03-22T12:57:54.460Z,66.14
2023-03-22T13:00:29.373Z,66.06
2023-03-22T13:03:02.435Z,65.93
2023-03-22T13:05:33.684Z,66.12
2023-03-22T13:08:04.089Z,65.88
2023-03-22T13:10:57.614Z,66.05
2023-03-22T13:13:42.834Z,66.22
2023-03-22T13:16:24.417Z,66.18
2023-03-22T13:19:06.814Z,65.80
2023-03-22T13:21:36.710Z,65.80
2023-03-22T13:24:23.260Z,66.17
2023-03-22T13:26:53.645Z,66.15
2023-03-22T13:29:24.493Z,65.79
2023-03-22T13:31:59.924Z,65.44
2023-03-22T13:34:37.521Z,65.02
2023-03-22T13:37:10.895Z,64.43
2023-03-22T13:39:39.348Z,63.64
2023-03-22T13:42:21.138Z,62.87
2023-03-22T13:44:58.542Z,62.42
2023-03-22T13:47:38.040Z,62.02
2023-03-22T13:50:13.293Z,62.30
2023-03-22T13:52:44.153Z,62.42
2023-03-22T13:55:37.476Z,63.22
2023-03-22T13:58:05.850Z,63.73
2023-03-22T14:00:44.856Z,63.79
2023-03-22T14:03:21.353Z,64.01
2023-03-22T14:05:49.676Z,64.13
2023-03-22T14:08:22.782Z,64.49
2023-03-22T14:10:56.466Z,64.58
2023-03-22T14:13:32.589Z,64.54
2023-03-22T14:16:07.445Z,65.01
2023-03-22T14:18:41.031Z,64.97
2023-03-22T14:21:13.789Z,65.65
